createdAt,value
2022-09-30T00:02:25.585Z,8.79
2022-09-30T00:04:53.086Z,8.82
2022-09-30T00:07:20.598Z,8.74
2022-09-30T00:09:48.657Z,8.55
2022-09-30T00:12:16.215Z,8.49
2022-09-30T00:14:43.720Z,8.44
2022-09-30T00:17:11.233Z,8.25
2022-09-30T00:19:40.413Z,8.15
2022-09-30T00:22:07.927Z,8.35
2022-09-30T00:24:35.419Z,8.44
2022-09-30T00:27:02.967Z,8.97
2022-09-30T00:29:30.465Z,8.69
2022-09-30T00:31:58.075Z,8.67
2022-09-30T00:34:25.628Z,8.66
2022-09-30T00:36:55.500Z,8.68
2022-09-30T00:39:25.905Z,8.67
2022-09-30T00:41:54.853Z,8.60
2022-09-30T00:44:47.827Z,8.47
2022-09-30T00:47:46.335Z,8.37
2022-09-30T00:50:21.933Z,8.24
2022-09-30T00:52:53.720Z,8.16
2022-09-30T00:55:27.658Z,8.27
2022-09-30T00:57:56.264Z,8.31
2022-09-30T01:00:23.837Z,8.30
2022-09-30T01:02:51.416Z,8.17
2022-09-30T01:05:20.191Z,8.08
2022-09-30T01:07:48.886Z,7.88
2022-09-30T01:10:17.883Z,7.60
2022-09-30T01:12:45.678Z,7.51
2022-09-30T01:15:13.329Z,7.48
2022-09-30T01:17:49.338Z,7.50
2022-09-30T01:20:38.913Z,7.40
2022-09-30T01:23:28.306Z,7.33
2022-09-30T01:26:18.058Z,7.34
2022-09-30T01:29:06.915Z,7.17
2022-09-30T01:31:47.879Z,7.16
2022-09-30T01:34:18.591Z,7.03
2022-09-30T01:37:00.855Z,6.93
2022-09-30T01:39:36.942Z,7.09
2022-09-30T01:42:10.252Z,7.15
2022-09-30T01:44:40.666Z,7.03
2022-09-30T01:47:13.756Z,6.88
2022-09-30T01:49:45.399Z,6.66
2022-09-30T01:52:16.391Z,6.50
2022-09-30T01:54:48.033Z,6.45
2022-09-30T01:57:18.907Z,6.44
2022-09-30T01:59:48.707Z,6.59
2022-09-30T02:02:20.048Z,6.68
2022-09-30T02:04:51.716Z,6.59
2022-09-30T02:07:25.011Z,6.62
2022-09-30T02:09:55.729Z,6.71
2022-09-30T02:12:27.226Z,6.65
2022-09-30T02:14:58.903Z,6.48
2022-09-30T02:17:31.051Z,6.52
2022-09-30T02:20:01.456Z,6.47
2022-09-30T02:22:33.018Z,6.44
2022-09-30T02:25:03.344Z,6.53
2022-09-30T02:27:34.346Z,6.44
2022-09-30T02:30:03.984Z,6.49
2022-09-30T02:32:36.450Z,6.35
2022-09-30T02:35:07.208Z,6.29
2022-09-30T02:37:36.900Z,6.32
2022-09-30T02:40:07.999Z,6.24
2022-09-30T02:42:35.690Z,6.06
2022-09-30T02:45:08.550Z,6.12
2022-09-30T02:47:49.252Z,6.14
2022-09-30T02:50:21.469Z,5.97
2022-09-30T02:52:57.948Z,5.81
2022-09-30T02:55:30.454Z,5.72
2022-09-30T02:58:01.847Z,5.69
2022-09-30T03:00:30.215Z,5.67
2022-09-30T03:03:00.683Z,5.94
2022-09-30T03:05:28.705Z,5.90
2022-09-30T03:07:56.531Z,5.76
2022-09-30T03:10:24.222Z,5.77
2022-09-30T03:13:06.836Z,5.77
2022-09-30T03:15:43.066Z,5.60
2022-09-30T03:18:36.530Z,5.55
2022-09-30T03:21:09.880Z,5.53
2022-09-30T03:24:08.049Z,5.50
2022-09-30T03:26:40.998Z,5.46
2022-09-30T03:29:15.221Z,5.40
2022-09-30T03:31:51.879Z,5.20
2022-09-30T03:34:23.672Z,5.14
2022-09-30T03:37:03.895Z,5.24
2022-09-30T03:39:41.468Z,5.32
2022-09-30T03:42:12.592Z,5.31
2022-09-30T03:44:42.323Z,5.38
2022-09-30T03:47:11.552Z,5.29
2022-09-30T03:49:41.359Z,5.29
2022-09-30T03:52:10.428Z,5.37
2022-09-30T03:54:46.747Z,5.20
2022-09-30T03:57:15.010Z,5.24
2022-09-30T03:59:42.530Z,5.26
2022-09-30T04:02:13.113Z,5.17
2022-09-30T04:04:42.750Z,5.13
2022-09-30T04:07:10.811Z,5.15
2022-09-30T04:09:38.751Z,5.08
2022-09-30T04:12:07.235Z,4.91
2022-09-30T04:14:35.722Z,5.07
2022-09-30T04:17:03.807Z,5.19
2022-09-30T04:19:31.335Z,5.02
2022-09-30T04:22:00.455Z,4.96
2022-09-30T04:24:27.939Z,5.01
2022-09-30T04:26:55.432Z,4.97
2022-09-30T04:29:23.028Z,4.88
2022-09-30T04:31:50.725Z,4.86
2022-09-30T04:34:18.262Z,4.66
2022-09-30T04:36:46.203Z,4.68
2022-09-30T04:39:15.198Z,4.56
2022-09-30T04:41:43.072Z,4.50
2022-09-30T04:44:10.579Z,4.42
2022-09-30T04:46:38.142Z,4.53
2022-09-30T04:49:09.022Z,4.56
2022-09-30T04:51:38.331Z,4.47
2022-09-30T04:54:06.025Z,4.40
2022-09-30T04:56:36.044Z,4.52
2022-09-30T04:59:03.638Z,4.52
2022-09-30T05:01:31.167Z,4.52
2022-09-30T05:03:58.651Z,4.54
2022-09-30T05:06:26.430Z,4.47
2022-09-30T05:08:53.965Z,4.38
2022-09-30T05:11:23.047Z,4.48
2022-09-30T05:13:51.922Z,4.54
2022-09-30T05:16:19.904Z,4.57
2022-09-30T05:18:47.611Z,4.72
2022-09-30T05:21:16.777Z,4.79
2022-09-30T05:23:44.337Z,4.83
2022-09-30T05:26:12.752Z,4.90
2022-09-30T05:28:40.643Z,4.92
2022-09-30T05:31:09.847Z,4.80
2022-09-30T05:33:37.467Z,4.95
2022-09-30T05:36:07.419Z,5.15
2022-09-30T05:38:35.594Z,5.27
2022-09-30T05:41:08.276Z,5.38
2022-09-30T05:43:35.887Z,5.37
2022-09-30T05:46:03.384Z,5.37
2022-09-30T05:48:32.470Z,5.37
2022-09-30T05:51:01.581Z,5.46
2022-09-30T05:53:30.026Z,5.46
2022-09-30T05:55:57.573Z,5.51
2022-09-30T05:58:25.363Z,5.52
2022-09-30T06:00:52.853Z,5.50
2022-09-30T06:03:20.391Z,5.49
2022-09-30T06:05:49.475Z,5.44
2022-09-30T06:08:17.052Z,5.44
2022-09-30T06:10:45.576Z,5.52
2022-09-30T06:13:13.283Z,5.62
2022-09-30T06:15:41.327Z,5.70
2022-09-30T06:18:09.951Z,5.84
2022-09-30T06:20:37.670Z,5.90
2022-09-30T06:23:06.510Z,5.96
2022-09-30T06:25:35.022Z,6.06
2022-09-30T06:28:02.920Z,6.15
2022-09-30T06:30:34.864Z,6.28
2022-09-30T06:33:02.899Z,6.36
2022-09-30T06:35:30.451Z,6.45
2022-09-30T06:37:57.960Z,6.44
2022-09-30T06:40:26.855Z,6.54
2022-09-30T06:42:59.919Z,6.64
2022-09-30T06:45:32.703Z,6.70
2022-09-30T06:48:01.727Z,6.78
2022-09-30T06:50:30.805Z,6.87
2022-09-30T06:52:59.153Z,6.97
2022-09-30T06:55:28.292Z,6.99
2022-09-30T06:57:56.994Z,7.09
2022-09-30T07:00:25.139Z,7.18
2022-09-30T07:02:53.731Z,7.22
2022-09-30T07:05:21.243Z,7.27
2022-09-30T07:07:49.075Z,7.40
2022-09-30T07:10:16.769Z,7.42
2022-09-30T07:12:45.611Z,7.46
2022-09-30T07:15:13.951Z,7.58
2022-09-30T07:17:41.574Z,7.70
2022-09-30T07:20:09.656Z,7.75
2022-09-30T07:22:37.151Z,7.91
2022-09-30T07:25:06.968Z,8.00
2022-09-30T07:27:34.811Z,8.06
2022-09-30T07:30:10.238Z,8.09
2022-09-30T07:32:39.435Z,8.23
2022-09-30T07:35:07.414Z,8.43
2022-09-30T07:37:36.090Z,8.43
2022-09-30T07:40:05.788Z,8.52
2022-09-30T07:42:33.742Z,8.55
2022-09-30T07:45:02.587Z,8.59
2022-09-30T07:47:30.071Z,8.83
2022-09-30T07:49:57.752Z,8.86
2022-09-30T07:52:25.239Z,8.95
2022-09-30T07:54:52.740Z,9.01
2022-09-30T07:57:21.585Z,9.09
2022-09-30T07:59:49.123Z,9.33
2022-09-30T08:02:19.957Z,9.44
2022-09-30T08:04:48.165Z,9.39
2022-09-30T08:07:17.428Z,9.40
2022-09-30T08:09:45.014Z,9.37
2022-09-30T08:12:12.625Z,9.44
2022-09-30T08:14:40.145Z,9.50
2022-09-30T08:17:07.649Z,9.69
2022-09-30T08:19:37.104Z,9.93
2022-09-30T08:22:06.273Z,10.03
2022-09-30T08:24:33.839Z,9.93
2022-09-30T08:27:01.403Z,9.95
2022-09-30T08:29:53.410Z,10.03
2022-09-30T08:32:16.659Z,10.15
2022-09-30T08:34:45.954Z,10.13
2022-09-30T08:37:13.476Z,10.43
2022-09-30T08:39:42.341Z,10.34
2022-09-30T08:42:42.403Z,10.61
2022-09-30T08:45:21.202Z,10.74
2022-09-30T08:47:54.284Z,10.87
2022-09-30T08:50:29.541Z,10.97
2022-09-30T08:53:01.007Z,10.99
2022-09-30T08:55:34.720Z,11.06
2022-09-30T08:58:03.694Z,11.03
2022-09-30T09:00:31.346Z,10.97
2022-09-30T09:03:00.530Z,11.14
2022-09-30T09:05:50.093Z,11.34
2022-09-30T09:08:26.720Z,11.46
2022-09-30T09:11:00.858Z,11.32
2022-09-30T09:13:40.947Z,11.37
2022-09-30T09:16:11.633Z,11.59
2022-09-30T09:18:55.064Z,11.79
2022-09-30T09:21:27.329Z,11.68
2022-09-30T09:23:58.622Z,11.76
2022-09-30T09:26:27.240Z,11.78
2022-09-30T09:29:04.740Z,11.97
2022-09-30T09:31:32.411Z,12.20
2022-09-30T09:34:02.888Z,12.24
2022-09-30T09:36:45.448Z,12.58
2022-09-30T09:39:22.383Z,12.76
2022-09-30T09:41:53.941Z,12.68
2022-09-30T09:44:26.894Z,12.43
2022-09-30T09:46:56.876Z,12.66
2022-09-30T09:49:31.023Z,12.80
2022-09-30T09:52:12.658Z,12.77
2022-09-30T09:54:42.210Z,12.95
2022-09-30T09:57:10.853Z,13.02
2022-09-30T09:59:39.331Z,13.14
2022-09-30T10:02:23.160Z,13.25
2022-09-30T10:04:59.871Z,13.11
2022-09-30T10:07:30.125Z,12.98
2022-09-30T10:10:09.923Z,13.19
2022-09-30T10:12:37.488Z,13.43
2022-09-30T10:15:21.919Z,13.24
2022-09-30T10:17:57.303Z,13.25
2022-09-30T10:20:29.060Z,13.27
2022-09-30T10:23:10.474Z,13.42
2022-09-30T10:25:37.996Z,13.54
2022-09-30T10:28:21.885Z,13.55
2022-09-30T10:30:51.905Z,13.82
2022-09-30T10:33:23.390Z,13.73
2022-09-30T10:36:07.242Z,14.22
2022-09-30T10:38:37.188Z,14.01
2022-09-30T10:41:06.092Z,14.06
2022-09-30T10:43:41.655Z,14.01
2022-09-30T10:46:27.187Z,14.58
2022-09-30T10:48:56.451Z,14.48
2022-09-30T10:51:27.553Z,14.41
2022-09-30T10:53:57.178Z,14.33
2022-09-30T10:56:46.075Z,14.15
2022-09-30T10:59:28.272Z,14.42
2022-09-30T11:02:00.876Z,14.39
2022-09-30T11:04:33.490Z,14.16
2022-09-30T11:07:14.589Z,14.09
2022-09-30T11:09:48.292Z,14.50
2022-09-30T11:12:23.211Z,14.70
2022-09-30T11:14:57.518Z,14.80
2022-09-30T11:17:30.034Z,14.69
2022-09-30T11:20:07.397Z,14.65
2022-09-30T11:22:40.408Z,15.01
2022-09-30T11:25:13.918Z,15.11
2022-09-30T11:27:49.790Z,15.42
2022-09-30T11:30:20.099Z,15.08
2022-09-30T11:32:59.143Z,15.08
2022-09-30T11:35:34.840Z,14.87
2022-09-30T11:38:11.111Z,14.70
2022-09-30T11:40:44.196Z,14.63
2022-09-30T11:43:20.787Z,14.84
2022-09-30T11:46:04.276Z,14.98
2022-09-30T11:48:42.104Z,14.98
2022-09-30T11:51:18.513Z,15.00
2022-09-30T11:53:51.196Z,15.09
2022-09-30T11:56:32.829Z,15.07
2022-09-30T11:59:01.923Z,15.14
2022-09-30T12:01:33.544Z,14.86
2022-09-30T12:04:05.252Z,15.33
2022-09-30T12:06:35.736Z,15.43
2022-09-30T12:09:10.695Z,15.08
2022-09-30T12:11:44.348Z,15.31
2022-09-30T12:14:15.941Z,15.30
2022-09-30T12:16:43.672Z,14.93
2022-09-30T12:19:15.863Z,15.19
2022-09-30T12:21:49.615Z,15.22
2022-09-30T12:24:23.387Z,15.21
2022-09-30T12:26:52.865Z,15.52
2022-09-30T12:29:40.947Z,15.58
2022-09-30T12:32:33.230Z,14.80
2022-09-30T12:35:10.130Z,15.17
2022-09-30T12:37:57.722Z,15.14
2022-09-30T12:40:35.267Z,15.66
2022-09-30T12:43:22.427Z,15.51
2022-09-30T12:46:06.023Z,15.21
2022-09-30T12:48:36.791Z,15.27
2022-09-30T12:51:05.810Z,15.48
2022-09-30T12:53:34.848Z,15.41
2022-09-30T12:56:07.316Z,15.29
2022-09-30T12:58:38.644Z,15.49
2022-09-30T13:01:08.668Z,15.79
2022-09-30T13:03:49.334Z,15.97
2022-09-30T13:06:20.702Z,16.01
2022-09-30T13:09:05.168Z,15.52
2022-09-30T13:11:37.935Z,16.00
2022-09-30T13:14:26.222Z,15.96
2022-09-30T13:17:25.434Z,15.78
2022-09-30T13:19:54.274Z,15.46
2022-09-30T13:22:43.112Z,15.52
2022-09-30T13:25:15.059Z,15.60
2022-09-30T13:27:44.268Z,16.42
2022-09-30T13:30:36.139Z,16.36
2022-09-30T13:33:22.888Z,15.91
2022-09-30T13:35:52.793Z,15.62
2022-09-30T13:38:24.363Z,16.11
2022-09-30T13:41:03.660Z,16.39
2022-09-30T13:43:34.649Z,16.67
2022-09-30T13:46:09.341Z,16.31
2022-09-30T13:48:39.550Z,16.08
2022-09-30T13:51:09.607Z,15.79
2022-09-30T13:53:39.218Z,15.79
2022-09-30T13:56:08.764Z,16.00
2022-09-30T13:59:06.648Z,15.94
2022-09-30T14:01:49.067Z,15.73
2022-09-30T14:04:42.913Z,15.65
2022-09-30T14:07:16.685Z,15.87
2022-09-30T14:09:57.078Z,16.15
2022-09-30T14:12:49.566Z,15.95
2022-09-30T14:15:37.354Z,15.67
2022-09-30T14:18:22.947Z,16.06
2022-09-30T14:21:02.689Z,16.16
2022-09-30T14:23:30.413Z,16.14
2022-09-30T14:26:00.987Z,15.71
2022-09-30T14:28:33.564Z,16.03
2022-09-30T14:31:13.237Z,16.19
2022-09-30T14:33:43.784Z,16.59
2022-09-30T14:36:14.990Z,16.71
2022-09-30T14:38:45.666Z,16.39
2022-09-30T14:41:18.484Z,16.12
2022-09-30T14:43:47.075Z,15.63
2022-09-30T14:46:19.276Z,15.63
2022-09-30T14:48:50.481Z,15.62
2022-09-30T14:51:23.583Z,15.72
2022-09-30T14:53:55.948Z,15.56
2022-09-30T14:56:29.417Z,15.59
2022-09-30T14:58:59.256Z,15.58
2022-09-30T15:01:30.587Z,15.25
2022-09-30T15:04:01.257Z,15.27
2022-09-30T15:06:30.784Z,15.18
2022-09-30T15:09:02.413Z,15.18
2022-09-30T15:11:30.108Z,15.12
2022-09-30T15:14:00.465Z,15.14
2022-09-30T15:16:29.988Z,15.12
2022-09-30T15:19:00.020Z,15.12
2022-09-30T15:21:29.190Z,15.23
2022-09-30T15:23:57.837Z,15.55
2022-09-30T15:26:26.486Z,15.42
2022-09-30T15:28:54.596Z,15.48
2022-09-30T15:31:25.589Z,15.33
2022-09-30T15:34:05.595Z,15.55
2022-09-30T15:36:33.954Z,15.49
2022-09-30T15:39:01.934Z,15.28
2022-09-30T15:41:29.532Z,15.31
2022-09-30T15:44:00.296Z,15.14
2022-09-30T15:46:30.799Z,15.09
2022-09-30T15:49:01.559Z,14.88
2022-09-30T15:51:36.200Z,14.76
2022-09-30T15:54:28.484Z,14.73
2022-09-30T15:56:56.554Z,14.54
2022-09-30T15:59:24.738Z,14.43
2022-09-30T16:01:53.050Z,14.36
2022-09-30T16:04:24.900Z,14.31
2022-09-30T16:06:55.280Z,14.23
2022-09-30T16:09:27.111Z,14.19
2022-09-30T16:12:00.928Z,14.13
2022-09-30T16:14:30.674Z,14.25
2022-09-30T16:17:01.073Z,14.11
2022-09-30T16:19:30.565Z,13.99
2022-09-30T16:21:59.920Z,13.95
2022-09-30T16:25:03.973Z,14.00
2022-09-30T16:27:33.014Z,13.76
2022-09-30T16:30:01.591Z,13.65
2022-09-30T16:32:32.472Z,13.51
2022-09-30T16:35:00.146Z,13.46
2022-09-30T16:37:29.480Z,13.40
2022-09-30T16:40:00.283Z,13.37
2022-09-30T16:42:27.761Z,13.36
2022-09-30T16:44:57.081Z,13.36
2022-09-30T16:47:24.895Z,13.40
2022-09-30T16:49:52.387Z,13.31
2022-09-30T16:52:19.892Z,13.16
2022-09-30T16:54:49.151Z,13.05
2022-09-30T16:57:16.874Z,13.07
2022-09-30T16:59:45.269Z,13.16
2022-09-30T17:02:16.491Z,13.28
2022-09-30T17:04:45.333Z,13.19
2022-09-30T17:07:14.848Z,13.15
2022-09-30T17:09:43.934Z,13.07
2022-09-30T17:12:13.138Z,13.08
2022-09-30T17:14:42.928Z,13.05
2022-09-30T17:17:13.465Z,13.10
2022-09-30T17:19:41.722Z,13.08
2022-09-30T17:22:09.202Z,13.08
2022-09-30T17:24:36.725Z,12.97
2022-09-30T17:27:04.403Z,12.69
2022-09-30T17:29:33.320Z,12.54
2022-09-30T17:32:01.449Z,12.44
2022-09-30T17:34:30.146Z,12.47
2022-09-30T17:36:57.776Z,12.46
2022-09-30T17:39:26.722Z,12.49
2022-09-30T17:42:11.993Z,12.56
2022-09-30T17:44:40.842Z,12.59
2022-09-30T17:47:08.332Z,12.57
2022-09-30T17:49:36.825Z,12.58
2022-09-30T17:52:04.935Z,12.59
2022-09-30T17:54:33.003Z,12.53
2022-09-30T17:57:00.523Z,12.47
2022-09-30T17:59:28.868Z,12.50
2022-09-30T18:01:57.833Z,12.41
2022-09-30T18:04:25.910Z,12.38
2022-09-30T18:06:53.974Z,12.30
2022-09-30T18:09:21.542Z,12.21
2022-09-30T18:11:49.139Z,12.16
2022-09-30T18:14:17.035Z,12.11
2022-09-30T18:16:44.950Z,12.05
2022-09-30T18:21:46.444Z,11.90
2022-09-30T18:24:14.095Z,11.93
2022-09-30T18:26:41.634Z,11.88
2022-09-30T18:29:09.162Z,11.84
2022-09-30T18:31:38.551Z,11.85
2022-09-30T18:34:07.215Z,11.83
2022-09-30T18:36:37.182Z,11.79
2022-09-30T18:39:05.127Z,11.82
2022-09-30T18:41:35.342Z,11.74
2022-09-30T18:44:03.440Z,11.62
2022-09-30T18:46:31.249Z,11.62
2022-09-30T18:48:58.929Z,11.58
2022-09-30T18:51:26.480Z,11.55
2022-09-30T18:53:57.654Z,11.43
2022-09-30T18:56:26.487Z,11.42
2022-09-30T18:58:54.105Z,11.49
2022-09-30T19:01:21.807Z,11.47
2022-09-30T19:03:49.456Z,11.42
2022-09-30T19:06:17.004Z,11.43
2022-09-30T19:08:44.562Z,11.39
2022-09-30T19:11:15.534Z,11.32
2022-09-30T19:13:43.972Z,11.34
2022-09-30T19:16:12.167Z,11.34
2022-09-30T19:18:40.135Z,11.33
2022-09-30T19:21:09.910Z,11.27
2022-09-30T19:23:37.575Z,11.28
2022-09-30T19:26:05.856Z,11.36
2022-09-30T19:28:36.521Z,11.36
2022-09-30T19:31:08.318Z,11.35
2022-09-30T19:33:40.679Z,11.44
2022-09-30T19:36:15.335Z,11.37
2022-09-30T19:38:45.004Z,11.39
2022-09-30T19:41:15.187Z,11.40
2022-09-30T19:43:46.465Z,11.46
2022-09-30T19:46:14.089Z,11.53
2022-09-30T19:48:42.255Z,11.55
2022-09-30T19:51:12.110Z,11.55
2022-09-30T19:53:41.999Z,11.60
2022-09-30T19:56:12.800Z,11.63
2022-09-30T19:58:43.024Z,11.69
2022-09-30T20:01:13.175Z,11.69
2022-09-30T20:03:42.078Z,11.77
2022-09-30T20:06:12.863Z,11.89
2022-09-30T20:08:40.452Z,11.97
2022-09-30T20:11:09.775Z,11.97
2022-09-30T20:13:37.614Z,12.03
2022-09-30T20:16:05.998Z,12.12
2022-09-30T20:18:36.699Z,12.23
2022-09-30T20:21:09.411Z,12.26
2022-09-30T20:23:38.839Z,12.26
2022-09-30T20:26:07.016Z,12.23
2022-09-30T20:28:35.040Z,12.24
2022-09-30T20:31:06.664Z,12.22
2022-09-30T20:33:37.046Z,12.18
2022-09-30T20:36:04.931Z,12.22
2022-09-30T20:38:33.322Z,12.21
2022-09-30T20:41:02.340Z,12.22
2022-09-30T20:43:31.129Z,12.17
2022-09-30T20:46:01.294Z,12.20
2022-09-30T20:48:33.360Z,12.15
2022-09-30T20:51:05.529Z,12.22
2022-09-30T20:53:33.254Z,12.22
2022-09-30T20:56:02.268Z,12.26
2022-09-30T20:58:29.758Z,12.23
2022-09-30T21:01:02.066Z,12.27
2022-09-30T21:03:31.665Z,12.29
2022-09-30T21:05:59.347Z,12.30
2022-09-30T21:08:28.216Z,12.21
2022-09-30T21:10:56.253Z,12.31
2022-09-30T21:13:23.735Z,12.28
2022-09-30T21:16:00.343Z,12.31
2022-09-30T21:18:28.558Z,12.35
2022-09-30T21:20:58.731Z,12.36
2022-09-30T21:23:28.125Z,12.45
2022-09-30T21:25:58.860Z,12.45
2022-09-30T21:28:26.907Z,12.40
2022-09-30T21:30:54.883Z,12.35
2022-09-30T21:33:22.580Z,12.41
2022-09-30T21:35:50.653Z,12.49
2022-09-30T21:38:18.145Z,12.39
2022-09-30T21:40:47.440Z,12.42
2022-09-30T21:43:14.946Z,12.36
2022-09-30T21:45:42.502Z,12.44
2022-09-30T21:48:11.564Z,12.43
2022-09-30T21:50:39.076Z,12.43
2022-09-30T21:53:06.601Z,12.44
2022-09-30T21:55:34.186Z,12.43
2022-09-30T21:58:03.031Z,12.36
2022-09-30T22:00:30.543Z,12.39
2022-09-30T22:02:58.668Z,12.41
2022-09-30T22:05:26.180Z,12.42
2022-09-30T22:07:53.705Z,12.43
2022-09-30T22:10:21.213Z,12.41
2022-09-30T22:12:49.964Z,12.33
2022-09-30T22:15:18.811Z,12.50
2022-09-30T22:17:46.309Z,12.48
2022-09-30T22:20:13.832Z,12.45
2022-09-30T22:22:41.561Z,12.52
2022-09-30T22:25:10.046Z,12.50
2022-09-30T22:27:37.863Z,12.53
2022-09-30T22:30:07.088Z,12.48
2022-09-30T22:32:35.996Z,12.55
2022-09-30T22:35:21.516Z,12.51
2022-09-30T22:38:07.147Z,12.55
2022-09-30T22:40:34.867Z,12.53
2022-09-30T22:43:03.255Z,12.52
2022-09-30T22:45:30.834Z,12.48
2022-09-30T22:48:00.287Z,12.54
2022-09-30T22:50:28.187Z,12.61
2022-09-30T22:52:55.697Z,12.54
2022-09-30T22:55:23.228Z,12.54
2022-09-30T22:57:50.751Z,12.64
2022-09-30T23:00:18.342Z,12.66
2022-09-30T23:02:45.840Z,12.66
2022-09-30T23:05:15.280Z,12.63
2022-09-30T23:07:42.769Z,12.61
2022-09-30T23:10:10.839Z,12.61
2022-09-30T23:12:38.391Z,12.65
2022-09-30T23:15:07.292Z,12.65
2022-09-30T23:17:35.680Z,12.64
2022-09-30T23:20:03.240Z,12.61
2022-09-30T23:22:32.121Z,12.69
2022-09-30T23:25:01.982Z,12.60
2022-09-30T23:27:29.499Z,12.69
2022-09-30T23:29:56.992Z,12.67
2022-09-30T23:32:24.479Z,12.62
2022-09-30T23:34:52.302Z,12.73
2022-09-30T23:37:19.820Z,12.57
2022-09-30T23:39:48.683Z,12.52
2022-09-30T23:42:16.180Z,12.39
2022-09-30T23:44:43.686Z,12.25
2022-09-30T23:47:19.989Z,12.09
2022-09-30T23:49:47.522Z,12.01
2022-09-30T23:52:15.349Z,11.85
2022-09-30T23:54:43.261Z,11.78
2022-09-30T23:57:12.560Z,11.63
2022-09-30T23:59:40.158Z,11.74
